Time;durP1;ratioP1;P1;durP2;ratioP2;P2;SDS_P1;SDS_P2;PMS_P1;PMS_P2;Temp;Humidity;BMP_temperature;BMP_pressure;BME280_temperature;BME280_humidity;BME280_pressure;Samples;Min_cycle;Max_cycle;Signal;HPM_P1;HPM_P2
2022/04/19 00:01:50;;;;;;;27.97;21.87;;;13.20;1.00;;;;;;5054150;28;20185;-83
2022/04/19 00:04:18;;;;;;;31.40;23.17;;;13.20;1.00;;;;;;5054131;28;20177;-83
2022/04/19 00:06:45;;;;;;;32.00;23.07;;;13.10;1.00;;;;;;5054428;28;20636;-82
2022/04/19 00:09:10;;;;;;;29.90;23.00;;;13.20;1.00;;;;;;5052949;28;20188;-81
2022/04/19 00:11:36;;;;;;;32.43;24.23;;;13.10;99.90;;;;;;5053542;28;20208;-82
2022/04/19 00:14:02;;;;;;;31.57;23.97;;;12.90;99.90;;;;;;5053797;28;20260;-82
2022/04/19 00:16:28;;;;;;;33.97;24.33;;;12.60;1.00;;;;;;5054061;28;20196;-84
2022/04/19 00:18:53;;;;;;;32.13;24.20;;;12.60;1.00;;;;;;5054147;28;20177;-82
2022/04/19 00:21:19;;;;;;;29.17;22.83;;;12.60;1.00;;;;;;5053913;28;20628;-82
2022/04/19 00:23:46;;;;;;;30.57;24.20;;;12.60;1.00;;;;;;5054085;28;20171;-81
2022/04/19 00:26:12;;;;;;;28.07;23.63;;;12.60;1.00;;;;;;5053991;28;20172;-79
2022/04/19 00:28:38;;;;;;;32.20;24.20;;;12.70;1.00;;;;;;5054108;28;20226;-82
2022/04/19 00:31:04;;;;;;;32.20;24.63;;;12.80;1.00;;;;;;5054385;28;20169;-82
2022/04/19 00:33:30;;;;;;;32.00;24.23;;;12.90;1.00;;;;;;5053347;28;20285;-84
2022/04/19 00:35:56;;;;;;;32.57;23.43;;;13.00;1.00;;;;;;5054079;28;20176;-83
2022/04/19 00:38:22;;;;;;;34.43;24.33;;;12.90;1.00;;;;;;5052624;28;20187;-84
2022/04/19 00:40:48;;;;;;;32.27;24.33;;;13.00;1.00;;;;;;5052504;28;20261;-81
2022/04/19 00:43:17;;;;;;;31.43;23.57;;;13.10;1.00;;;;;;5060936;28;20543;-81
2022/04/19 00:45:42;;;;;;;29.80;23.37;;;13.10;1.00;;;;;;5072969;28;20183;-81
2022/04/19 00:48:08;;;;;;;34.23;26.07;;;13.00;1.00;;;;;;5071061;28;20180;-81
2022/04/19 00:50:34;;;;;;;32.80;25.87;;;12.90;1.00;;;;;;5073213;28;20188;-81
2022/04/19 00:53:01;;;;;;;29.60;24.27;;;12.90;1.00;;;;;;5074397;28;20314;-81
2022/04/19 00:55:38;;;;;;;32.73;26.17;;;12.80;1.00;;;;;;5075519;28;20157;-81
2022/04/19 00:58:07;;;;;;;30.40;24.50;;;12.90;1.00;;;;;;5064154;28;20699;-82
2022/04/19 01:00:33;;;;;;;36.20;26.17;;;12.90;1.00;;;;;;5059911;28;20161;-80
2022/04/19 01:02:59;;;;;;;30.70;24.40;;;12.80;1.00;;;;;;5059630;28;20505;-80
2022/04/19 01:05:27;;;;;;;29.37;23.73;;;12.80;1.00;;;;;;5059858;28;20161;-80
2022/04/19 01:07:54;;;;;;;30.63;24.87;;;12.70;1.00;;;;;;5066967;28;20161;-81
2022/04/19 01:10:20;;;;;;;33.10;25.10;;;12.80;1.00;;;;;;5062269;28;20199;-82
2022/04/19 01:15:30;;;;;;;33.57;27.67;;;12.70;1.00;;;;;;5063595;28;20242;-81
2022/04/19 01:17:57;;;;;;;30.37;25.07;;;12.70;1.00;;;;;;5067309;28;20176;-80
2022/04/19 01:20:23;;;;;;;32.17;26.00;;;12.90;1.00;;;;;;5066360;28;20161;-79
2022/04/19 01:22:51;;;;;;;34.10;26.67;;;12.70;1.00;;;;;;5058795;28;20260;-80
2022/04/19 01:25:19;;;;;;;34.20;27.20;;;12.60;1.00;;;;;;5056168;28;20233;-83
2022/04/19 01:27:45;;;;;;;33.17;27.43;;;12.40;1.00;;;;;;5054846;28;20173;-82
2022/04/19 01:30:12;;;;;;;35.70;27.53;;;12.60;1.00;;;;;;5055399;28;20193;-81
2022/04/19 01:32:39;;;;;;;39.50;27.17;;;12.80;1.00;;;;;;5053720;28;20216;-82
2022/04/19 01:35:14;;;;;;;35.53;28.07;;;12.70;1.00;;;;;;5053509;28;20252;-81
2022/04/19 01:37:43;;;;;;;34.03;28.63;;;12.70;1.00;;;;;;5065689;28;20231;-81
2022/04/19 01:40:16;;;;;;;33.13;27.93;;;12.60;1.00;;;;;;5075204;28;20227;-82
2022/04/19 01:42:46;;;;;;;36.67;28.77;;;12.40;1.00;;;;;;5064099;28;20169;-82
2022/04/19 01:45:34;;;;;;;35.13;29.00;;;12.10;1.00;;;;;;5057785;28;20157;-81
2022/04/19 01:48:03;;;;;;;38.60;29.30;;;12.00;1.00;;;;;;5053240;28;20165;-82
2022/04/19 01:50:29;;;;;;;37.40;30.13;;;11.80;1.00;;;;;;5053266;28;20239;-82
2022/04/19 01:52:57;;;;;;;33.73;28.47;;;11.60;1.00;;;;;;5054678;28;20635;-81
2022/04/19 01:55:23;;;;;;;38.87;30.67;;;11.70;1.00;;;;;;5069717;28;20173;-83
2022/04/19 01:57:56;;;;;;;37.27;29.07;;;11.80;1.00;;;;;;5072169;28;20199;-81
2022/04/19 02:00:25;;;;;;;40.03;30.83;;;12.00;1.00;;;;;;5059761;28;20173;-83
2022/04/19 02:02:58;;;;;;;41.67;32.07;;;12.20;1.00;;;;;;5055568;28;20184;-81
2022/04/19 02:05:24;;;;;;;38.57;30.47;;;12.20;1.00;;;;;;5055645;28;20184;-83
2022/04/19 02:07:50;;;;;;;36.77;30.77;;;12.20;1.00;;;;;;5056692;28;20180;-83
2022/04/19 02:10:18;;;;;;;37.33;30.97;;;12.20;1.00;;;;;;5055153;28;20181;-82
2022/04/19 02:12:43;;;;;;;37.50;28.93;;;12.10;1.00;;;;;;5056369;28;20209;-82
2022/04/19 02:15:10;;;;;;;36.30;29.87;;;12.00;1.00;;;;;;5056376;28;20248;-81
2022/04/19 02:17:48;;;;;;;38.33;31.23;;;11.80;1.00;;;;;;5056551;28;20267;-80
2022/04/19 02:20:16;;;;;;;38.57;32.23;;;11.90;1.00;;;;;;5056427;28;20636;-81
2022/04/19 02:22:42;;;;;;;38.07;31.40;;;12.10;1.00;;;;;;5059433;28;20244;-79
2022/04/19 02:25:09;;;;;;;39.47;31.67;;;12.20;1.00;;;;;;5068763;28;20176;-80
2022/04/19 02:27:35;;;;;;;40.43;33.00;;;12.30;1.00;;;;;;5064050;28;20197;-81
2022/04/19 02:30:05;;;;;;;40.37;32.60;;;12.20;1.00;;;;;;5070533;28;20264;-82
2022/04/19 02:32:31;;;;;;;40.80;33.43;;;12.10;1.00;;;;;;5059604;28;20220;-81
2022/04/19 02:34:59;;;;;;;39.33;34.60;;;12.20;1.00;;;;;;5056422;28;20169;-80
2022/04/19 02:37:25;;;;;;;37.10;31.47;;;12.10;1.00;;;;;;5056135;28;20173;-81
2022/04/19 02:39:50;;;;;;;39.73;33.33;;;12.10;1.00;;;;;;5054448;28;20180;-82
2022/04/19 02:42:17;;;;;;;41.73;33.97;;;12.10;1.00;;;;;;5055947;28;20212;-82
2022/04/19 02:44:43;;;;;;;38.60;33.00;;;12.20;1.00;;;;;;5055859;28;20208;-79
2022/04/19 02:47:09;;;;;;;41.77;34.23;;;12.20;1.00;;;;;;5056021;28;20176;-83
2022/04/19 02:49:36;;;;;;;42.10;33.33;;;12.20;1.00;;;;;;5054654;28;20173;-82
2022/04/19 02:52:04;;;;;;;42.63;33.73;;;12.10;1.00;;;;;;5054586;28;20673;-81
2022/04/19 02:54:31;;;;;;;39.90;32.47;;;12.00;1.00;;;;;;5055749;28;20195;-80
2022/04/19 02:56:57;;;;;;;43.63;35.13;;;12.10;1.00;;;;;;5055223;28;20200;-81
2022/04/19 02:59:22;;;;;;;40.50;34.03;;;12.10;1.00;;;;;;5063940;28;20153;-79
2022/04/19 03:01:48;;;;;;;41.97;33.67;;;12.10;1.00;;;;;;5075876;28;20551;-79
2022/04/19 03:04:14;;;;;;;43.70;35.47;;;12.30;1.00;;;;;;5075215;28;20165;-81
2022/04/19 03:06:40;;;;;;;43.73;35.70;;;12.00;1.00;;;;;;5076330;28;20211;-82
2022/04/19 03:09:06;;;;;;;44.30;35.27;;;11.90;1.00;;;;;;5064931;28;20268;-80
2022/04/19 03:11:32;;;;;;;41.67;35.43;;;11.90;1.00;;;;;;5059926;28;20204;-81
2022/04/19 03:14:01;;;;;;;43.30;36.27;;;12.00;1.00;;;;;;5062437;28;20153;-82
2022/04/19 03:16:28;;;;;;;43.03;33.90;;;11.80;1.00;;;;;;5064947;28;20159;-80
2022/04/19 03:18:53;;;;;;;46.23;36.53;;;11.80;1.00;;;;;;5058521;28;20177;-81
2022/04/19 03:21:19;;;;;;;47.27;35.67;;;11.60;1.00;;;;;;5055325;28;20667;-81
2022/04/19 03:29:14;;;;;;;39.10;32.30;;;11.60;1.00;;;;;;5055585;28;20199;-81
2022/04/19 03:31:39;;;;;;;44.97;35.63;;;11.40;1.00;;;;;;5054857;28;20215;-81
2022/04/19 03:34:06;;;;;;;44.67;35.40;;;11.50;1.00;;;;;;5055607;28;20188;-82
2022/04/19 03:36:32;;;;;;;39.50;34.53;;;11.60;1.00;;;;;;5054748;28;20165;-81
2022/04/19 03:38:58;;;;;;;43.10;35.83;;;11.80;1.00;;;;;;5055506;28;20187;-81
2022/04/19 03:41:25;;;;;;;41.27;35.47;;;11.80;1.00;;;;;;5055381;28;20161;-82
2022/04/19 03:43:51;;;;;;;50.37;37.33;;;11.90;1.00;;;;;;5055103;28;20244;-83
2022/04/19 03:46:17;;;;;;;43.13;35.40;;;11.90;1.00;;;;;;5055562;28;20637;-80
2022/04/19 03:48:43;;;;;;;45.10;35.87;;;12.00;1.00;;;;;;5054544;28;20169;-82
2022/04/19 03:51:09;;;;;;;42.10;36.50;;;11.90;1.00;;;;;;5055049;28;20195;-84
2022/04/19 03:53:35;;;;;;;45.70;37.33;;;11.80;1.00;;;;;;5054098;28;20695;-83
2022/04/19 03:56:03;;;;;;;44.03;35.83;;;11.90;1.00;;;;;;5057941;28;20180;-82
2022/04/19 03:58:29;;;;;;;44.27;37.67;;;11.90;1.00;;;;;;5063427;28;20177;-82
2022/04/19 04:00:55;;;;;;;43.30;37.40;;;11.80;1.00;;;;;;5071178;28;20518;-77
2022/04/19 04:03:21;;;;;;;42.20;36.30;;;11.80;1.00;;;;;;5074525;28;20177;-80
2022/04/19 04:05:50;;;;;;;46.90;37.77;;;11.90;1.00;;;;;;5062625;28;20175;-80
2022/04/19 04:08:19;;;;;;;45.63;37.43;;;11.60;1.00;;;;;;5053722;28;20173;-82
2022/04/19 04:10:44;;;;;;;42.23;36.43;;;11.40;1.00;;;;;;5054641;28;20582;-82
2022/04/19 04:13:10;;;;;;;43.80;37.90;;;11.40;1.00;;;;;;5053256;28;20212;-81
2022/04/19 04:15:36;;;;;;;44.37;37.40;;;11.30;1.00;;;;;;5054034;28;20175;-81
2022/04/19 04:18:02;;;;;;;46.23;37.43;;;11.40;1.00;;;;;;5066380;28;20177;-82
2022/04/19 04:20:28;;;;;;;43.40;38.20;;;11.50;1.00;;;;;;5074413;28;20172;-82
2022/04/19 04:22:54;;;;;;;46.63;38.20;;;11.50;1.00;;;;;;5061058;28;20602;-82
2022/04/19 04:25:22;;;;;;;45.57;38.00;;;11.60;1.00;;;;;;5054826;28;20204;-82
2022/04/19 04:27:49;;;;;;;46.47;38.27;;;11.60;1.00;;;;;;5054405;28;20165;-82
2022/04/19 04:30:14;;;;;;;44.83;37.23;;;11.40;1.00;;;;;;5054371;28;20508;-81
2022/04/19 04:32:40;;;;;;;49.50;38.60;;;11.30;1.00;;;;;;5052823;28;20746;-83
2022/04/19 04:35:07;;;;;;;44.83;37.87;;;11.10;1.00;;;;;;5053557;28;20187;-82
2022/04/19 04:37:32;;;;;;;41.67;36.90;;;11.00;1.00;;;;;;5054681;28;20167;-82
2022/04/19 04:39:58;;;;;;;45.63;38.87;;;11.00;1.00;;;;;;5052599;28;20177;-82
2022/04/19 04:42:24;;;;;;;50.57;39.43;;;11.10;1.00;;;;;;5052891;28;20173;-81
2022/04/19 04:44:49;;;;;;;46.07;38.30;;;11.10;1.00;;;;;;5036719;28;20593;-82
2022/04/19 04:50:01;;;;;;;48.70;38.70;;;11.10;1.00;;;;;;5053135;28;20695;-82
2022/04/19 04:52:27;;;;;;;45.67;37.07;;;11.20;1.00;;;;;;5053786;28;20215;-80
2022/04/19 04:54:53;;;;;;;46.50;38.40;;;11.20;1.00;;;;;;5052307;28;20511;-82
2022/04/19 04:57:22;;;;;;;43.97;37.13;;;11.20;1.00;;;;;;5054001;28;20193;-82
2022/04/19 04:59:48;;;;;;;46.90;38.13;;;11.20;1.00;;;;;;5052774;28;20169;-81
2022/04/19 05:02:14;;;;;;;44.33;36.93;;;11.20;1.00;;;;;;5054084;28;20185;-81
2022/04/19 05:04:40;;;;;;;43.60;37.60;;;11.10;1.00;;;;;;5058870;28;20165;-82
2022/04/19 05:07:05;;;;;;;48.50;38.70;;;11.10;1.00;;;;;;5073271;28;20192;-81
2022/04/19 05:09:31;;;;;;;42.93;37.10;;;11.00;1.00;;;;;;5073736;28;20199;-82
2022/04/19 05:11:57;;;;;;;42.10;37.27;;;10.90;1.00;;;;;;5076262;28;20270;-81
2022/04/19 05:14:24;;;;;;;44.07;37.57;;;11.00;1.00;;;;;;5074987;28;20188;-80
2022/04/19 05:16:50;;;;;;;42.97;37.20;;;11.00;1.00;;;;;;5067006;28;20257;-82
2022/04/19 05:19:18;;;;;;;43.97;37.60;;;11.10;1.00;;;;;;5060069;28;20212;-80
2022/04/19 05:21:44;;;;;;;46.33;37.97;;;11.10;1.00;;;;;;5056636;28;20267;-83
2022/04/19 05:24:12;;;;;;;46.80;37.70;;;11.10;1.00;;;;;;5052886;28;20205;-82
2022/04/19 05:26:49;;;;;;;46.57;38.50;;;11.30;1.00;;;;;;5059349;28;20165;-79
2022/04/19 05:29:14;;;;;;;46.30;36.73;;;11.40;1.00;;;;;;5060822;28;20241;-82
2022/04/19 05:31:40;;;;;;;48.40;39.50;;;11.50;1.00;;;;;;5058889;28;20223;-82
2022/04/19 05:34:06;;;;;;;45.50;38.17;;;11.60;1.00;;;;;;5057549;28;20181;-80
2022/04/19 05:36:32;;;;;;;43.53;36.93;;;11.70;1.00;;;;;;5069267;28;20188;-82
2022/04/19 05:38:58;;;;;;;45.17;37.30;;;11.80;1.00;;;;;;5070765;28;20188;-81
2022/04/19 05:41:39;;;;;;;43.70;36.47;;;11.90;1.00;;;;;;5059753;28;20242;-80
2022/04/19 05:44:05;;;;;;;42.13;36.67;;;11.80;1.00;;;;;;5056041;28;20176;-81
2022/04/19 05:46:31;;;;;;;44.53;38.27;;;11.90;1.00;;;;;;5057982;28;20168;-83
2022/04/19 05:48:57;;;;;;;42.10;36.63;;;12.00;1.00;;;;;;5058692;28;20197;-82
2022/04/19 05:51:22;;;;;;;43.40;37.63;;;12.10;1.00;;;;;;5055370;28;21781;-83
2022/04/19 05:53:49;;;;;;;43.43;37.77;;;12.10;1.00;;;;;;5056805;28;20236;-84
2022/04/19 05:56:14;;;;;;;43.00;37.23;;;12.20;1.00;;;;;;5059364;28;20192;-84
2022/04/19 05:58:40;;;;;;;44.33;36.73;;;12.20;1.00;;;;;;5055910;28;20203;-83
2022/04/19 06:01:06;;;;;;;43.17;36.63;;;12.30;1.00;;;;;;5055289;28;20180;-83
2022/04/19 06:06:16;;;;;;;43.47;35.13;;;12.30;1.00;;;;;;5059113;28;20179;-83
2022/04/19 06:08:43;;;;;;;44.97;36.00;;;12.20;1.00;;;;;;5056737;28;20177;-82
2022/04/19 06:11:12;;;;;;;41.33;34.73;;;12.10;1.00;;;;;;5057714;28;20225;-82
2022/04/19 06:13:41;;;;;;;42.73;34.93;;;12.20;1.00;;;;;;5057928;28;20296;-81
2022/04/19 06:16:08;;;;;;;43.87;34.83;;;12.30;1.00;;;;;;5059011;28;20169;-84
2022/04/19 06:18:34;;;;;;;43.73;35.40;;;12.50;1.00;;;;;;5059698;28;20177;-83
2022/04/19 06:21:00;;;;;;;45.87;35.43;;;12.60;1.00;;;;;;5059344;28;20170;-82
2022/04/19 06:23:26;;;;;;;45.17;33.70;;;12.60;1.00;;;;;;5058709;28;20264;-80
2022/04/19 06:25:53;;;;;;;38.50;34.30;;;12.80;1.00;;;;;;5064982;28;20637;-83
2022/04/19 06:28:18;;;;;;;42.70;35.33;;;13.00;1.00;;;;;;5064194;28;20256;-83
2022/04/19 06:30:44;;;;;;;49.37;36.70;;;13.30;1.00;;;;;;5075019;28;20178;-83
2022/04/19 06:33:10;;;;;;;42.43;34.77;;;13.50;1.00;;;;;;5070597;28;20206;-83
2022/04/19 06:35:36;;;;;;;41.03;34.70;;;13.60;1.00;;;;;;5061450;28;20243;-84
2022/04/19 06:38:02;;;;;;;41.97;33.97;;;13.80;1.00;;;;;;5057935;28;20167;-83
2022/04/19 06:40:30;;;;;;;40.23;34.40;;;13.90;1.00;;;;;;5055858;28;20176;-82
2022/04/19 06:42:57;;;;;;;40.73;33.47;;;14.00;1.00;;;;;;5058057;28;20237;-83
2022/04/19 06:45:23;;;;;;;41.07;33.97;;;14.10;1.00;;;;;;5071156;28;20167;-83
2022/04/19 06:48:00;;;;;;;38.27;32.77;;;14.10;1.00;;;;;;5059749;28;20210;-83
2022/04/19 06:50:28;;;;;;;41.10;32.07;;;14.00;1.00;;;;;;5056622;28;20170;-84
2022/04/19 06:52:55;;;;;;;41.27;33.70;;;13.90;1.00;;;;;;5056169;28;20198;-83
2022/04/19 06:55:22;;;;;;;46.67;34.10;;;13.90;1.00;;;;;;5056881;28;20190;-83
2022/04/19 06:57:48;;;;;;;40.33;33.63;;;14.10;1.00;;;;;;5057299;28;20244;-83
2022/04/19 07:00:15;;;;;;;39.80;32.47;;;14.20;1.00;;;;;;5075830;28;20152;-82
2022/04/19 07:02:41;;;;;;;42.53;33.47;;;14.20;99.90;;;;;;5076079;28;20173;-82
2022/04/19 07:05:07;;;;;;;42.03;34.27;;;14.30;1.00;;;;;;5077046;28;20214;-81
2022/04/19 07:07:33;;;;;;;42.73;32.80;;;14.30;99.90;;;;;;5079287;28;20163;-83
2022/04/19 07:10:02;;;;;;;40.03;32.90;;;14.30;99.90;;;;;;5074575;28;20185;-82
2022/04/19 07:12:34;;;;;;;39.57;32.70;;;14.20;99.90;;;;;;5064519;28;20239;-81
2022/04/19 07:14:59;;;;;;;38.60;31.70;;;14.20;99.90;;;;;;5058886;28;20176;-83
2022/04/19 07:17:26;;;;;;;37.60;31.87;;;14.30;99.90;;;;;;5058675;28;20180;-83
2022/04/19 07:28:10;;;;;;;40.53;31.63;;;14.80;99.90;;;;;;5059200;28;20179;-82
2022/04/19 07:30:36;;;;;;;40.03;31.53;;;14.70;99.90;;;;;;5060973;28;20184;-83
2022/04/19 07:33:04;;;;;;;41.90;30.73;;;14.80;91.40;;;;;;5061029;28;20217;-83
2022/04/19 07:35:29;;;;;;;42.30;30.50;;;14.70;1.00;;;;;;5057606;28;20204;-83
2022/04/19 07:37:55;;;;;;;34.50;30.07;;;14.70;1.00;;;;;;5056479;28;20173;-83
2022/04/19 07:40:22;;;;;;;39.33;30.93;;;14.80;1.00;;;;;;5056799;28;20616;-83
2022/04/19 07:42:48;;;;;;;40.93;28.87;;;14.80;1.00;;;;;;5056597;28;20252;-81
2022/04/19 07:45:15;;;;;;;44.23;29.27;;;14.70;1.00;;;;;;5057516;28;20224;-82
2022/04/19 07:47:41;;;;;;;41.07;30.43;;;14.80;1.00;;;;;;5056126;28;20208;-81
2022/04/19 07:50:06;;;;;;;36.50;29.03;;;14.90;1.00;;;;;;5053848;28;20188;-82
2022/04/19 07:52:32;;;;;;;40.17;29.80;;;15.00;1.00;;;;;;5056081;28;20616;-81
2022/04/19 07:54:58;;;;;;;35.50;28.77;;;15.00;99.90;;;;;;5056109;28;20169;-83
2022/04/19 07:57:24;;;;;;;49.00;29.03;;;15.00;99.90;;;;;;5054772;28;20193;-83
2022/04/19 07:59:54;;;;;;;43.37;28.77;;;15.00;99.90;;;;;;5055552;28;20189;-83
2022/04/19 08:02:20;;;;;;;38.77;28.87;;;14.90;99.90;;;;;;5056549;28;20181;-84
2022/04/19 08:04:46;;;;;;;38.87;28.83;;;15.00;99.90;;;;;;5056162;28;20172;-83
2022/04/19 08:07:12;;;;;;;39.93;29.13;;;15.00;1.00;;;;;;5039074;28;20485;-82
2022/04/19 08:09:37;;;;;;;37.40;27.50;;;14.90;1.00;;;;;;5055614;28;20650;-82
2022/04/19 08:12:05;;;;;;;35.83;27.50;;;14.80;99.90;;;;;;5054585;28;20216;-83
2022/04/19 08:14:31;;;;;;;40.47;27.67;;;14.90;1.00;;;;;;5058728;28;20169;-84
2022/04/19 08:16:57;;;;;;;45.87;27.43;;;15.00;93.10;;;;;;5057121;28;20569;-84
2022/04/19 08:19:23;;;;;;;34.80;27.03;;;15.20;1.00;;;;;;5054602;28;20315;-83
2022/04/19 08:21:50;;;;;;;40.20;27.80;;;15.20;1.00;;;;;;5055814;28;20346;-84
2022/04/19 08:24:16;;;;;;;42.20;27.10;;;15.30;99.90;;;;;;5074323;28;20177;-82
2022/04/19 08:26:41;;;;;;;49.30;27.57;;;15.30;99.90;;;;;;5072011;28;20187;-81
2022/04/19 08:29:17;;;;;;;42.63;27.63;;;15.30;99.90;;;;;;5064244;28;20169;-81
2022/04/19 08:31:42;;;;;;;48.27;26.30;;;15.20;90.00;;;;;;5055146;28;20177;-80
2022/04/19 08:34:08;;;;;;;40.23;26.10;;;15.30;99.90;;;;;;5070333;28;20264;-81
2022/04/19 08:36:34;;;;;;;48.13;26.40;;;15.50;1.00;;;;;;5076057;28;20149;-82
2022/04/19 08:39:00;;;;;;;45.73;26.27;;;15.60;1.00;;;;;;5076497;28;20185;-83
2022/04/19 08:41:30;;;;;;;38.00;24.20;;;15.70;99.90;;;;;;5064696;28;20177;-82
2022/04/19 08:44:02;;;;;;;42.50;23.70;;;15.70;99.90;;;;;;5066659;28;20173;-81
2022/04/19 08:46:38;;;;;;;41.63;22.57;;;15.90;1.00;;;;;;5069483;28;20621;-81
2022/04/19 08:49:04;;;;;;;29.30;20.60;;;15.90;99.90;;;;;;5068260;28;20215;-80
2022/04/19 08:51:35;;;;;;;36.80;20.47;;;16.00;1.00;;;;;;5069363;28;20173;-79
2022/04/19 08:59:31;;;;;;;43.00;19.73;;;16.20;1.00;;;;;;5054012;28;20578;-82
2022/04/19 09:01:59;;;;;;;30.03;17.50;;;16.40;99.90;;;;;;5052569;28;20181;-84
2022/04/19 09:04:25;;;;;;;32.27;13.93;;;16.50;55.10;;;;;;5055441;28;20694;-83
2022/04/19 09:06:54;;;;;;;16.60;12.73;;;16.60;99.90;;;;;;5054422;28;20169;-82
2022/04/19 09:09:24;;;;;;;17.90;12.17;;;16.80;99.90;;;;;;5062276;28;20188;-82
2022/04/19 09:11:51;;;;;;;16.07;11.07;;;16.90;99.90;;;;;;5060443;28;20287;-82
2022/04/19 09:14:18;;;;;;;15.13;11.37;;;17.00;99.90;;;;;;5062823;28;20180;-83
2022/04/19 09:16:46;;;;;;;14.63;11.27;;;17.10;99.90;;;;;;5061153;28;20223;-82
2022/04/19 09:19:29;;;;;;;14.70;11.93;;;17.30;99.90;;;;;;5055313;28;20173;-81
2022/04/19 09:21:55;;;;;;;12.77;10.03;;;17.30;99.90;;;;;;5054490;28;20190;-81
2022/04/19 09:24:22;;;;;;;15.57;9.80;;;17.30;60.00;;;;;;5053307;28;20176;-82
2022/04/19 09:26:49;;;;;;;12.60;9.07;;;17.20;48.80;;;;;;5052873;28;20192;-83
2022/04/19 09:29:18;;;;;;;11.63;9.00;;;17.30;32.10;;;;;;5054021;28;20260;-82
2022/04/19 09:31:43;;;;;;;12.73;9.87;;;17.30;1.00;;;;;;5054119;28;20571;-82
2022/04/19 09:34:11;;;;;;;13.03;9.47;;;17.30;1.00;;;;;;5052843;28;20178;-83
2022/04/19 09:36:37;;;;;;;12.50;8.50;;;17.30;1.00;;;;;;5053874;28;20165;-80
2022/04/19 09:39:26;;;;;;;11.03;8.20;;;17.30;1.00;;;;;;5053279;28;20169;-81
2022/04/19 09:42:08;;;;;;;10.87;8.47;;;17.40;1.00;;;;;;5054018;28;20530;-81
2022/04/19 09:44:44;;;;;;;12.40;8.53;;;17.40;1.00;;;;;;5065353;28;20182;-81
2022/04/19 09:47:13;;;;;;;11.43;7.63;;;17.40;1.00;;;;;;5060430;28;20665;-83
2022/04/19 09:49:44;;;;;;;10.97;7.50;;;17.40;1.00;;;;;;5054922;28;20577;-82
2022/04/19 09:52:23;;;;;;;10.43;8.27;;;17.40;1.00;;;;;;5054151;28;20208;-83
2022/04/19 09:55:09;;;;;;;10.27;7.77;;;17.60;1.00;;;;;;5054834;28;20190;-83
2022/04/19 09:57:39;;;;;;;11.27;8.33;;;17.70;1.00;;;;;;5054005;28;20199;-80
2022/04/19 10:00:08;;;;;;;9.97;8.33;;;17.90;1.00;;;;;;5053216;28;20179;-82
2022/04/19 10:08:13;;;;;;;11.20;7.70;;;18.30;1.00;;;;;;5054295;28;20184;-84
2022/04/19 10:10:40;;;;;;;11.23;8.90;;;18.40;1.00;;;;;;5054536;28;20577;-82
2022/04/19 10:13:06;;;;;;;11.40;7.93;;;18.30;1.00;;;;;;5055744;28;20201;-80
2022/04/19 10:15:34;;;;;;;13.57;8.70;;;18.30;1.00;;;;;;5066132;28;20215;-82
2022/04/19 10:18:00;;;;;;;10.53;8.20;;;18.40;1.00;;;;;;5069005;28;20177;-81
2022/04/19 10:20:31;;;;;;;11.10;8.23;;;18.40;1.00;;;;;;5059930;28;20225;-79
2022/04/19 10:23:01;;;;;;;11.97;8.33;;;18.60;1.00;;;;;;5057453;28;20189;-84
2022/04/19 10:25:40;;;;;;;12.13;8.87;;;18.60;1.00;;;;;;5062457;28;20176;-81
2022/04/19 10:28:07;;;;;;;10.77;9.03;;;18.60;1.00;;;;;;5068483;28;20173;-80
2022/04/19 10:30:36;;;;;;;16.10;9.60;;;18.60;1.00;;;;;;5077014;28;20177;-82
2022/04/19 10:33:40;;;;;;;18.90;10.13;;;18.80;1.00;;;;;;5074900;28;20221;-82
2022/04/19 10:36:17;;;;;;;13.90;9.87;;;19.20;1.00;;;;;;5075403;28;20193;-80
2022/04/19 10:38:47;;;;;;;10.80;8.60;;;19.30;1.00;;;;;;5064776;28;20248;-80
2022/04/19 10:41:53;;;;;;;9.43;5.03;;;19.00;1.00;;;;;;5058644;28;20157;-83
2022/04/19 10:44:41;;;;;;;8.10;5.37;;;18.80;1.00;;;;;;5056512;28;20184;-83
2022/04/19 10:47:13;;;;;;;10.10;5.83;;;18.60;1.00;;;;;;5058671;28;20169;-81
2022/04/19 10:49:49;;;;;;;7.07;5.60;;;18.60;1.00;;;;;;5057304;28;20160;-84
2022/04/19 10:52:39;;;;;;;9.53;6.20;;;18.70;1.00;;;;;;5056459;28;20200;-82
2022/04/19 10:55:26;;;;;;;9.23;6.70;;;18.80;1.00;;;;;;5056993;28;20169;-84
2022/04/19 10:58:05;;;;;;;10.67;6.63;;;18.80;1.00;;;;;;5056414;28;20188;-84
2022/04/19 11:00:34;;;;;;;8.33;6.83;;;18.80;1.00;;;;;;5061126;28;20216;-81
2022/04/19 11:03:03;;;;;;;13.13;7.50;;;19.00;1.00;;;;;;5067792;28;20166;-80
2022/04/19 11:05:50;;;;;;;8.10;7.00;;;18.90;1.00;;;;;;5069853;28;20259;-83
2022/04/19 11:08:25;;;;;;;10.37;7.00;;;18.80;1.00;;;;;;5057985;28;20213;-82
2022/04/19 11:11:03;;;;;;;9.97;7.50;;;18.70;1.00;;;;;;5058136;28;20196;-84
2022/04/19 11:13:31;;;;;;;10.93;7.20;;;18.80;1.00;;;;;;5056638;28;20208;-82
2022/04/19 11:16:06;;;;;;;11.43;7.90;;;18.80;1.00;;;;;;5056431;28;20178;-82
2022/04/19 11:18:39;;;;;;;11.60;7.93;;;18.90;1.00;;;;;;5058769;28;20165;-81
2022/04/19 11:21:12;;;;;;;9.63;7.70;;;18.90;1.00;;;;;;5057416;28;20169;-83
2022/04/19 11:23:48;;;;;;;11.67;7.63;;;19.20;1.00;;;;;;5057720;28;20564;-82
2022/04/19 11:26:33;;;;;;;9.23;6.43;;;19.50;1.00;;;;;;5056492;28;20261;-84
2022/04/19 11:29:08;;;;;;;8.67;5.93;;;19.50;1.00;;;;;;5066900;28;20225;-81
2022/04/19 11:31:35;;;;;;;8.67;6.37;;;19.30;1.00;;;;;;5070991;28;20178;-83
2022/04/19 11:34:09;;;;;;;10.57;7.20;;;19.20;1.00;;;;;;5075118;28;20193;-85
2022/04/19 11:36:42;;;;;;;8.87;6.63;;;19.00;1.00;;;;;;5068251;28;20184;-81
2022/04/19 11:46:43;;;;;;;9.47;7.17;;;19.00;1.00;;;;;;5062049;28;20164;-83
2022/04/19 11:47:48;;;;;;;8.83;6.63;;;19.30;1.00;;;;;;5057368;28;20522;-79
2022/04/19 11:50:29;;;;;;;8.77;6.40;;;19.20;1.00;;;;;;5056395;28;20175;-80
2022/04/19 11:52:56;;;;;;;8.73;6.00;;;19.30;1.00;;;;;;5056309;28;20660;-83
2022/04/19 11:55:25;;;;;;;7.33;5.63;;;19.40;1.00;;;;;;5056115;28;20174;-82
2022/04/19 11:58:09;;;;;;;10.27;6.37;;;19.50;1.00;;;;;;5060878;28;20187;-81
2022/04/19 12:00:35;;;;;;;11.13;6.30;;;19.50;1.00;;;;;;5065943;28;20242;-83
2022/04/19 12:03:21;;;;;;;9.43;6.07;;;19.60;1.00;;;;;;5055827;28;20269;-82
2022/04/19 12:05:47;;;;;;;8.67;6.23;;;19.40;1.00;;;;;;5061726;28;20661;-80
2022/04/19 12:08:13;;;;;;;7.63;6.33;;;19.30;1.00;;;;;;5073182;28;20181;-81
2022/04/19 12:10:40;;;;;;;9.70;6.13;;;19.40;1.00;;;;;;5073032;28;20167;-78
2022/04/19 12:13:05;;;;;;;9.30;6.83;;;19.60;1.00;;;;;;5072096;28;20208;-78
2022/04/19 12:15:41;;;;;;;7.80;6.43;;;19.80;1.00;;;;;;5063407;28;20578;-83
2022/04/19 12:18:30;;;;;;;9.50;7.00;;;19.90;1.00;;;;;;5057011;28;20530;-83
2022/04/19 12:20:55;;;;;;;9.50;7.77;;;19.70;1.00;;;;;;5055835;28;20166;-84
2022/04/19 12:23:21;;;;;;;10.87;7.07;;;19.90;1.00;;;;;;5073098;28;20148;-84
2022/04/19 12:26:10;;;;;;;9.67;6.83;;;20.10;1.00;;;;;;5074844;28;20202;-81
2022/04/19 12:28:46;;;;;;;9.33;6.80;;;20.10;1.00;;;;;;5055585;28;20172;-83
2022/04/19 12:31:34;;;;;;;11.73;8.20;;;19.90;1.00;;;;;;5054154;28;20171;-82
2022/04/19 12:34:01;;;;;;;11.20;7.43;;;19.70;1.00;;;;;;5054871;28;20184;-83
2022/04/19 12:36:28;;;;;;;11.37;7.37;;;19.60;1.00;;;;;;5054204;28;20197;-80
2022/04/19 12:39:03;;;;;;;10.93;7.47;;;19.90;1.00;;;;;;5053177;28;20274;-82
2022/04/19 12:41:39;;;;;;;9.97;7.73;;;20.20;1.00;;;;;;5053368;28;20177;-82
2022/04/19 12:44:08;;;;;;;10.07;7.47;;;20.40;1.00;;;;;;5055174;28;20204;-83
2022/04/19 12:46:50;;;;;;;10.93;8.23;;;20.10;1.00;;;;;;5057930;28;20195;-81
2022/04/19 12:49:32;;;;;;;10.97;7.63;;;20.10;1.00;;;;;;5058614;28;20212;-81
2022/04/19 12:52:07;;;;;;;8.23;6.97;;;20.20;1.00;;;;;;5055468;28;20231;-81
2022/04/19 12:54:38;;;;;;;9.73;6.67;;;20.00;1.00;;;;;;5053240;28;20185;-82
2022/04/19 12:57:11;;;;;;;8.30;6.13;;;20.10;1.00;;;;;;5055189;28;20198;-84
2022/04/19 12:59:37;;;;;;;7.80;5.80;;;20.30;1.00;;;;;;5054260;28;20176;-80
2022/04/19 13:02:03;;;;;;;9.60;6.60;;;20.30;1.00;;;;;;5053823;28;20177;-82
2022/04/19 13:04:29;;;;;;;9.33;6.50;;;20.30;1.00;;;;;;5053864;28;20661;-82
2022/04/19 13:12:26;;;;;;;10.40;6.00;;;20.20;1.00;;;;;;5054468;28;20224;-82
2022/04/19 13:15:00;;;;;;;10.00;6.23;;;20.20;1.00;;;;;;5054373;28;20532;-80
2022/04/19 13:17:31;;;;;;;7.77;6.33;;;20.20;1.00;;;;;;5054796;28;20309;-81
2022/04/19 13:19:57;;;;;;;9.10;6.87;;;20.10;1.00;;;;;;5054284;28;20173;-83
2022/04/19 13:22:23;;;;;;;11.27;7.00;;;20.10;1.00;;;;;;5054387;28;20178;-82
2022/04/19 13:24:50;;;;;;;11.13;6.50;;;20.20;1.00;;;;;;5054669;28;20197;-82
2022/04/19 13:27:16;;;;;;;8.77;6.03;;;20.20;1.00;;;;;;5054252;28;20602;-79
2022/04/19 13:29:43;;;;;;;7.20;5.77;;;20.10;1.00;;;;;;5053591;28;20186;-81
2022/04/19 13:32:10;;;;;;;9.20;6.30;;;20.20;1.00;;;;;;5054277;28;20252;-84
2022/04/19 13:34:36;;;;;;;8.53;6.10;;;20.20;1.00;;;;;;5052878;28;20196;-82